createdAt,value
2023-05-19T00:01:48.309Z,100672.70
2023-05-19T00:04:16.932Z,100670.88
2023-05-19T00:06:51.091Z,100667.31
2023-05-19T00:09:19.130Z,100667.83
2023-05-19T00:11:47.181Z,100667.86
2023-05-19T00:14:15.249Z,100671.24
2023-05-19T00:16:43.473Z,100677.29
2023-05-19T00:19:11.384Z,100675.43
2023-05-19T00:21:39.379Z,100673.48
2023-05-19T00:24:07.680Z,100669.27
2023-05-19T00:26:35.978Z,100665.17
2023-05-19T00:29:06.253Z,100662.44
2023-05-19T00:31:34.428Z,100659.26
2023-05-19T00:34:03.189Z,100655.66
2023-05-19T00:36:31.195Z,100654.98
2023-05-19T00:38:59.019Z,100658.39
2023-05-19T00:41:27.172Z,100656.60
2023-05-19T00:43:55.446Z,100653.80
2023-05-19T00:46:23.775Z,100650.91
2023-05-19T00:48:51.785Z,100655.15
2023-05-19T00:51:20.248Z,100656.89
2023-05-19T00:53:51.072Z,100661.09
2023-05-19T00:56:19.257Z,100660.30
2023-05-19T00:58:48.208Z,100664.26
2023-05-19T01:01:19.094Z,100665.08
2023-05-19T01:03:48.838Z,100670.16
2023-05-19T01:06:19.275Z,100672.35
2023-05-19T01:08:47.821Z,100669.66
2023-05-19T01:11:15.793Z,100664.36
2023-05-19T01:13:44.364Z,100660.04
2023-05-19T01:16:33.766Z,100655.65
2023-05-19T01:19:40.368Z,100654.20
2023-05-19T01:22:27.111Z,100658.25
2023-05-19T01:25:00.898Z,100663.83
2023-05-19T01:27:47.265Z,100668.67
2023-05-19T01:30:36.129Z,100666.94
2023-05-19T01:33:07.333Z,100670.02
2023-05-19T01:35:38.058Z,100666.97
2023-05-19T01:38:09.286Z,100665.08
2023-05-19T01:40:39.613Z,100663.60
2023-05-19T01:43:09.508Z,100659.86
2023-05-19T01:45:38.238Z,100664.03
2023-05-19T01:48:09.892Z,100667.92
2023-05-19T01:50:41.609Z,100668.75
2023-05-19T01:53:10.729Z,100664.21
2023-05-19T01:55:50.307Z,100662.43
2023-05-19T01:58:37.905Z,100658.66
2023-05-19T02:01:27.283Z,100658.95
2023-05-19T02:04:18.581Z,100664.02
2023-05-19T02:06:46.786Z,100663.11
2023-05-19T02:09:26.092Z,100659.81
2023-05-19T02:12:06.351Z,100663.05
2023-05-19T02:14:46.404Z,100665.08
2023-05-19T02:17:16.191Z,100665.60
2023-05-19T02:19:44.972Z,100667.95
2023-05-19T02:22:12.947Z,100667.15
2023-05-19T02:24:41.642Z,100664.69
2023-05-19T02:27:09.891Z,100664.10
2023-05-19T02:29:37.791Z,100661.15
2023-05-19T02:32:07.169Z,100662.10
2023-05-19T02:34:35.180Z,100663.33
2023-05-19T02:37:07.646Z,100662.30
2023-05-19T02:39:35.498Z,100664.89
2023-05-19T02:42:04.101Z,100662.71
2023-05-19T02:44:32.162Z,100662.88
2023-05-19T02:46:59.988Z,100663.61
2023-05-19T02:49:31.067Z,100665.73
2023-05-19T02:51:58.942Z,100664.50
2023-05-19T02:54:26.796Z,100668.27
2023-05-19T02:56:54.709Z,100670.14
2023-05-19T02:59:25.030Z,100671.10
2023-05-19T03:01:55.610Z,100666.42
2023-05-19T03:04:23.923Z,100663.77
2023-05-19T03:06:51.862Z,100662.55
2023-05-19T03:09:20.340Z,100660.72
2023-05-19T03:11:48.156Z,100652.65
2023-05-19T03:14:15.983Z,100651.04
2023-05-19T03:16:46.949Z,100654.70
2023-05-19T03:19:15.702Z,100666.28
2023-05-19T03:22:08.777Z,100675.38
2023-05-19T03:24:36.683Z,100669.96
2023-05-19T03:27:28.143Z,100669.84
2023-05-19T03:30:21.167Z,100672.84
2023-05-19T03:33:07.878Z,100665.08
2023-05-19T03:35:36.048Z,100656.09
2023-05-19T03:38:04.302Z,100663.19
2023-05-19T03:40:32.543Z,100668.23
2023-05-19T03:43:07.957Z,100672.33
2023-05-19T03:45:40.133Z,100672.77
2023-05-19T03:48:26.892Z,100666.20
2023-05-19T03:51:13.555Z,100668.79
2023-05-19T03:53:41.528Z,100665.89
2023-05-19T03:56:13.901Z,100659.48
2023-05-19T03:58:43.618Z,100662.35
2023-05-19T04:01:12.060Z,100670.12
2023-05-19T04:03:40.022Z,100666.35
2023-05-19T04:06:10.923Z,100663.56
2023-05-19T04:08:40.081Z,100666.01
2023-05-19T04:11:08.058Z,100667.49
2023-05-19T04:13:37.017Z,100670.70
2023-05-19T04:16:05.460Z,100674.04
2023-05-19T04:18:36.627Z,100680.18
2023-05-19T04:21:05.822Z,100680.95
2023-05-19T04:23:33.808Z,100684.92
2023-05-19T04:26:02.632Z,100687.38
2023-05-19T04:28:30.556Z,100692.33
2023-05-19T04:30:58.884Z,100692.15
2023-05-19T04:33:29.282Z,100696.95
2023-05-19T04:35:58.466Z,100691.87
2023-05-19T04:38:28.331Z,100681.10
2023-05-19T04:40:56.477Z,100678.74
2023-05-19T04:43:25.464Z,100679.17
2023-05-19T04:45:53.321Z,100679.56
2023-05-19T04:48:21.931Z,100680.38
2023-05-19T04:50:52.004Z,100679.93
2023-05-19T04:53:22.276Z,100677.16
2023-05-19T04:55:51.239Z,100672.64
2023-05-19T04:58:19.736Z,100673.30
2023-05-19T05:00:50.343Z,100669.91
2023-05-19T05:03:18.997Z,100670.36
2023-05-19T05:05:46.889Z,100665.71
2023-05-19T05:08:16.367Z,100668.62
2023-05-19T05:10:45.058Z,100672.09
2023-05-19T05:13:13.542Z,100675.73
2023-05-19T05:15:42.099Z,100672.00
2023-05-19T05:18:11.074Z,100671.42
2023-05-19T05:20:39.500Z,100670.94
2023-05-19T05:23:09.699Z,100669.98
2023-05-19T05:25:39.080Z,100668.85
2023-05-19T05:28:07.171Z,100669.36
2023-05-19T05:30:37.034Z,100672.56
2023-05-19T05:33:06.536Z,100677.98
2023-05-19T05:35:38.472Z,100679.66
2023-05-19T05:38:08.324Z,100681.73
2023-05-19T05:40:37.279Z,100690.35
2023-05-19T05:43:05.459Z,100697.60
2023-05-19T05:45:35.738Z,100702.24
2023-05-19T05:48:04.370Z,100707.02
2023-05-19T05:50:33.015Z,100706.02
2023-05-19T05:53:01.839Z,100706.33
2023-05-19T05:55:30.372Z,100703.45
2023-05-19T05:58:02.231Z,100704.50
2023-05-19T06:00:30.896Z,100707.19
2023-05-19T06:02:59.612Z,100708.25
2023-05-19T06:05:27.792Z,100707.52
2023-05-19T06:07:56.215Z,100707.73
2023-05-19T06:10:26.627Z,100706.11
2023-05-19T06:12:54.962Z,100705.50
2023-05-19T06:15:23.053Z,100707.84
2023-05-19T06:18:00.624Z,100715.02
2023-05-19T06:20:29.442Z,100715.93
2023-05-19T06:22:58.404Z,100716.05
2023-05-19T06:25:28.756Z,100721.77
2023-05-19T06:27:57.152Z,100722.87
2023-05-19T06:30:25.228Z,100720.79
2023-05-19T06:33:21.011Z,100717.76
2023-05-19T06:35:48.918Z,100718.55
2023-05-19T06:38:18.286Z,100712.45
2023-05-19T06:40:46.110Z,100714.86
2023-05-19T06:43:14.994Z,100718.10
2023-05-19T06:45:56.574Z,100717.61
2023-05-19T06:48:26.512Z,100714.86
2023-05-19T06:50:54.623Z,100712.50
2023-05-19T06:53:22.564Z,100707.54
2023-05-19T06:55:59.361Z,100709.75
2023-05-19T06:58:28.892Z,100706.39
2023-05-19T07:00:57.232Z,100710.86
2023-05-19T07:03:27.310Z,100715.08
2023-05-19T07:05:55.949Z,100714.50
2023-05-19T07:08:24.262Z,100713.73
2023-05-19T07:10:52.154Z,100713.83
2023-05-19T07:13:20.168Z,100714.48
2023-05-19T07:15:49.332Z,100711.10
2023-05-19T07:18:18.514Z,100708.91
2023-05-19T07:20:46.558Z,100706.48
2023-05-19T07:23:17.133Z,100707.77
2023-05-19T07:25:47.262Z,100706.44
2023-05-19T07:28:15.220Z,100706.02
2023-05-19T07:30:43.309Z,100704.61
2023-05-19T07:33:11.141Z,100698.11
2023-05-19T07:35:39.867Z,100695.80
2023-05-19T07:38:07.675Z,100696.77
2023-05-19T07:40:35.587Z,100701.88
2023-05-19T07:43:03.768Z,100700.69
2023-05-19T07:45:31.914Z,100697.23
2023-05-19T07:48:00.002Z,100701.03
2023-05-19T07:50:27.890Z,100697.09
2023-05-19T07:52:56.131Z,100693.39
2023-05-19T07:55:23.914Z,100689.00
2023-05-19T07:57:51.866Z,100689.36
2023-05-19T08:00:20.452Z,100688.78
2023-05-19T08:02:48.609Z,100689.52
2023-05-19T08:05:16.615Z,100692.44
2023-05-19T08:07:44.502Z,100689.34
2023-05-19T08:10:12.379Z,100687.15
2023-05-19T08:12:40.310Z,100684.52
2023-05-19T08:15:09.268Z,100683.64
2023-05-19T08:17:37.449Z,100680.88
2023-05-19T08:20:08.668Z,100678.62
2023-05-19T08:22:36.924Z,100676.45
2023-05-19T08:25:05.689Z,100684.06
2023-05-19T08:27:33.741Z,100679.27
2023-05-19T08:30:02.490Z,100682.64
2023-05-19T08:32:30.384Z,100680.52
2023-05-19T08:34:58.908Z,100679.30
2023-05-19T08:37:26.702Z,100678.99
2023-05-19T08:39:54.596Z,100678.54
2023-05-19T08:42:22.943Z,100678.24
2023-05-19T08:44:51.509Z,100674.77
2023-05-19T08:47:20.082Z,100677.31
2023-05-19T08:49:52.854Z,100677.63
2023-05-19T08:52:50.153Z,100673.92
2023-05-19T08:55:45.381Z,100668.91
2023-05-19T08:58:15.696Z,100671.11
2023-05-19T09:00:44.551Z,100666.60
2023-05-19T09:05:46.791Z,100661.38
2023-05-19T09:08:15.056Z,100656.36
2023-05-19T09:10:43.000Z,100652.64
2023-05-19T09:13:11.092Z,100648.19
2023-05-19T09:15:41.315Z,100650.11
2023-05-19T09:18:13.205Z,100651.73
2023-05-19T09:20:43.717Z,100649.15
2023-05-19T09:23:18.261Z,100651.48
2023-05-19T09:25:53.228Z,100649.05
2023-05-19T09:28:33.311Z,100654.39
2023-05-19T09:31:11.210Z,100654.64
2023-05-19T09:33:46.092Z,100652.65
2023-05-19T09:36:14.268Z,100651.16
2023-05-19T09:38:42.712Z,100648.65
2023-05-19T09:41:10.657Z,100652.17
2023-05-19T09:43:38.441Z,100658.34
2023-05-19T09:46:09.206Z,100655.02
2023-05-19T09:48:38.821Z,100651.33
2023-05-19T09:51:10.402Z,100650.71
2023-05-19T09:53:39.291Z,100646.26
2023-05-19T09:56:08.876Z,100646.98
2023-05-19T09:58:37.427Z,100645.17
2023-05-19T10:01:06.105Z,100643.94
2023-05-19T10:03:35.145Z,100639.73
2023-05-19T10:06:09.334Z,100636.16
2023-05-19T10:08:37.806Z,100626.38
2023-05-19T10:11:06.863Z,100627.27
2023-05-19T10:13:38.714Z,100632.23
2023-05-19T10:16:08.707Z,100636.83
2023-05-19T10:18:39.894Z,100632.34
2023-05-19T10:21:09.706Z,100629.33
2023-05-19T10:23:38.467Z,100631.59
2023-05-19T10:26:07.637Z,100634.13
2023-05-19T10:28:39.623Z,100637.34
2023-05-19T10:31:11.581Z,100636.86
2023-05-19T10:33:39.474Z,100636.59
2023-05-19T10:36:25.778Z,100633.81
2023-05-19T10:39:01.105Z,100626.59
2023-05-19T10:41:47.202Z,100627.47
2023-05-19T10:44:31.851Z,100628.51
2023-05-19T10:46:59.834Z,100622.61
2023-05-19T10:49:27.701Z,100618.19
2023-05-19T10:51:57.227Z,100618.90
2023-05-19T10:54:40.977Z,100617.41
2023-05-19T10:57:18.253Z,100617.27
2023-05-19T10:59:46.422Z,100615.04
2023-05-19T11:02:43.260Z,100617.15
2023-05-19T11:05:18.268Z,100612.89
2023-05-19T11:08:02.432Z,100616.19
2023-05-19T11:10:30.642Z,100622.35
2023-05-19T11:12:58.873Z,100629.30
2023-05-19T11:15:27.867Z,100636.88
2023-05-19T11:17:56.215Z,100634.89
2023-05-19T11:20:26.302Z,100636.64
2023-05-19T11:23:14.555Z,100634.75
2023-05-19T11:25:47.247Z,100636.16
2023-05-19T11:28:26.245Z,100637.09
2023-05-19T11:30:57.547Z,100631.19
2023-05-19T11:33:30.058Z,100628.92
2023-05-19T11:35:58.584Z,100635.41
2023-05-19T11:38:30.271Z,100636.22
2023-05-19T11:40:58.469Z,100636.69
2023-05-19T11:43:26.581Z,100638.71
2023-05-19T11:45:55.348Z,100640.22
2023-05-19T11:48:25.306Z,100638.08
2023-05-19T11:50:53.571Z,100631.69
2023-05-19T11:53:21.601Z,100636.27
2023-05-19T11:55:50.153Z,100643.30
2023-05-19T11:58:18.598Z,100648.00
2023-05-19T12:00:48.053Z,100650.06
2023-05-19T12:03:22.154Z,100649.16
2023-05-19T12:05:52.633Z,100652.67
2023-05-19T12:08:21.697Z,100649.57
2023-05-19T12:10:51.049Z,100642.43
2023-05-19T12:13:20.124Z,100634.48
2023-05-19T12:15:50.524Z,100631.29
2023-05-19T12:18:19.576Z,100628.38
2023-05-19T12:20:47.624Z,100638.55
2023-05-19T12:23:15.908Z,100648.21
2023-05-19T12:25:43.946Z,100658.09
2023-05-19T12:28:12.249Z,100663.77
2023-05-19T12:30:41.526Z,100661.19
2023-05-19T12:33:10.012Z,100656.80
2023-05-19T12:35:38.026Z,100651.77
2023-05-19T12:38:09.348Z,100652.23
2023-05-19T12:40:42.434Z,100644.55
2023-05-19T12:43:24.927Z,100640.64
2023-05-19T12:45:53.387Z,100635.34
2023-05-19T12:48:25.851Z,100628.34
2023-05-19T12:50:56.723Z,100622.06
2023-05-19T12:53:27.986Z,100614.02
2023-05-19T12:55:55.838Z,100606.35
2023-05-19T12:58:24.396Z,100601.76
2023-05-19T13:01:00.127Z,100602.31
2023-05-19T13:03:28.394Z,100601.99
2023-05-19T13:05:56.386Z,100596.60
2023-05-19T13:08:24.843Z,100590.27
2023-05-19T13:10:52.874Z,100585.72
2023-05-19T13:13:22.102Z,100582.33
2023-05-19T13:15:49.967Z,100573.73
2023-05-19T13:18:18.220Z,100570.94
2023-05-19T13:20:47.373Z,100566.63
2023-05-19T13:23:16.669Z,100561.35
2023-05-19T13:25:44.685Z,100557.75
2023-05-19T13:28:12.999Z,100555.48
2023-05-19T13:30:43.516Z,100552.56
2023-05-19T13:33:12.080Z,100552.25
2023-05-19T13:35:40.321Z,100551.39
2023-05-19T13:38:10.631Z,100553.10
2023-05-19T13:40:40.339Z,100554.73
2023-05-19T13:43:09.082Z,100559.45
2023-05-19T13:45:37.257Z,100568.78
2023-05-19T13:48:07.452Z,100567.00
2023-05-19T13:50:36.104Z,100565.50
2023-05-19T13:53:04.101Z,100566.95
2023-05-19T13:55:34.064Z,100569.86
2023-05-19T13:58:02.441Z,100574.39
2023-05-19T14:00:32.455Z,100575.75
2023-05-19T14:03:00.917Z,100581.98
2023-05-19T14:05:29.313Z,100581.39
2023-05-19T14:07:58.039Z,100582.13
2023-05-19T14:10:26.156Z,100583.28
2023-05-19T14:13:18.382Z,100585.78
2023-05-19T14:15:42.049Z,100578.52
2023-05-19T14:18:10.222Z,100576.22
2023-05-19T14:20:38.163Z,100572.84
2023-05-19T14:23:06.451Z,100569.84
2023-05-19T14:25:34.298Z,100569.92
2023-05-19T14:28:02.272Z,100571.38
2023-05-19T14:30:30.531Z,100573.93
2023-05-19T14:32:58.544Z,100575.49
2023-05-19T14:35:27.037Z,100570.14
2023-05-19T14:38:02.174Z,100569.61
2023-05-19T14:40:33.360Z,100566.81
2023-05-19T14:43:01.755Z,100563.02
2023-05-19T14:45:33.810Z,100563.31
2023-05-19T14:48:12.163Z,100562.41
2023-05-19T14:50:40.476Z,100560.97
2023-05-19T14:53:08.415Z,100558.81
2023-05-19T14:55:36.763Z,100560.50
2023-05-19T14:58:10.175Z,100561.67
2023-05-19T15:01:14.476Z,100566.20
2023-05-19T15:03:47.061Z,100572.50
2023-05-19T15:06:15.217Z,100579.85
2023-05-19T15:08:43.223Z,100581.01
2023-05-19T15:11:11.272Z,100579.19
2023-05-19T15:13:42.008Z,100577.39
2023-05-19T15:16:17.314Z,100577.54
2023-05-19T15:18:46.095Z,100574.23
2023-05-19T15:21:14.034Z,100574.84
2023-05-19T15:23:41.954Z,100571.67
2023-05-19T15:28:55.381Z,100571.02
2023-05-19T15:31:23.391Z,100571.52
2023-05-19T15:33:51.518Z,100572.95
2023-05-19T15:36:19.757Z,100576.91
2023-05-19T15:38:47.620Z,100578.47
2023-05-19T15:41:17.473Z,100578.04
2023-05-19T15:43:46.716Z,100575.78
2023-05-19T15:46:16.042Z,100567.72
2023-05-19T15:48:44.232Z,100559.11
2023-05-19T15:51:12.277Z,100554.98
2023-05-19T15:53:40.698Z,100551.10
2023-05-19T15:56:09.978Z,100550.38
2023-05-19T15:58:38.008Z,100546.12
2023-05-19T16:01:09.822Z,100545.36
2023-05-19T16:03:40.042Z,100544.35
2023-05-19T16:06:08.000Z,100540.64
2023-05-19T16:08:35.991Z,100536.52
2023-05-19T16:11:04.243Z,100534.35
2023-05-19T16:13:35.597Z,100533.86
2023-05-19T16:16:04.034Z,100535.25
2023-05-19T16:18:31.994Z,100534.96
2023-05-19T16:20:59.744Z,100535.86
2023-05-19T16:23:27.614Z,100536.10
2023-05-19T16:25:57.505Z,100539.64
2023-05-19T16:28:25.699Z,100543.99
2023-05-19T16:31:00.344Z,100543.67
2023-05-19T16:33:34.449Z,100545.87
2023-05-19T16:36:02.980Z,100546.87
2023-05-19T16:38:31.027Z,100550.69
2023-05-19T16:40:58.922Z,100551.71
2023-05-19T16:43:26.923Z,100557.52
2023-05-19T16:45:54.788Z,100560.74
2023-05-19T16:48:22.737Z,100564.40
2023-05-19T16:50:50.850Z,100568.91
2023-05-19T16:53:18.951Z,100571.46
2023-05-19T16:55:47.071Z,100574.50
2023-05-19T16:58:15.298Z,100573.16
2023-05-19T17:00:43.589Z,100576.55
2023-05-19T17:03:11.822Z,100574.70
2023-05-19T17:05:42.049Z,100580.38
2023-05-19T17:08:10.330Z,100581.63
2023-05-19T17:10:39.434Z,100583.91
2023-05-19T17:13:07.360Z,100580.73
2023-05-19T17:15:35.750Z,100583.42
2023-05-19T17:18:05.631Z,100583.66
2023-05-19T17:20:34.060Z,100584.25
2023-05-19T17:23:02.212Z,100585.34
2023-05-19T17:25:32.941Z,100587.57
2023-05-19T17:28:01.064Z,100590.02
2023-05-19T17:30:29.108Z,100593.74
2023-05-19T17:32:59.136Z,100596.95
2023-05-19T17:35:28.555Z,100599.05
2023-05-19T17:37:58.042Z,100607.49
2023-05-19T17:40:26.227Z,100637.04
2023-05-19T17:42:54.088Z,100647.70
2023-05-19T17:45:24.379Z,100650.91
2023-05-19T17:47:52.456Z,100665.47
2023-05-19T17:50:20.280Z,100671.00
2023-05-19T17:52:48.882Z,100670.20
2023-05-19T17:55:17.100Z,100666.65
2023-05-19T17:57:46.378Z,100662.54
2023-05-19T18:00:15.168Z,100662.96
2023-05-19T18:02:43.853Z,100658.64
2023-05-19T18:05:12.896Z,100655.56
2023-05-19T18:07:42.530Z,100651.58
2023-05-19T18:10:11.961Z,100648.67
2023-05-19T18:12:42.957Z,100644.15
2023-05-19T18:15:11.928Z,100641.35
2023-05-19T18:17:39.854Z,100639.83
2023-05-19T18:20:08.299Z,100636.60
2023-05-19T18:22:36.574Z,100627.91
2023-05-19T18:25:05.065Z,100623.98
2023-05-19T18:27:33.566Z,100621.55
2023-05-19T18:30:01.607Z,100615.66
2023-05-19T18:32:29.673Z,100615.05
2023-05-19T18:35:00.169Z,100612.89
2023-05-19T18:37:28.662Z,100612.58
2023-05-19T18:39:56.712Z,100614.07
2023-05-19T18:45:38.478Z,100604.15
2023-05-19T18:48:08.045Z,100607.63
2023-05-19T18:50:36.516Z,100603.40
2023-05-19T18:53:04.492Z,100599.91
2023-05-19T18:55:32.449Z,100591.85
2023-05-19T18:58:01.321Z,100608.98
2023-05-19T19:00:29.477Z,100617.39
2023-05-19T19:03:00.466Z,100618.50
2023-05-19T19:05:28.897Z,100620.59
2023-05-19T19:07:57.572Z,100606.11
2023-05-19T19:10:25.646Z,100599.33
2023-05-19T19:12:53.549Z,100603.47
2023-05-19T19:15:21.624Z,100598.77
2023-05-19T19:17:49.719Z,100599.02
2023-05-19T19:20:17.840Z,100604.16
2023-05-19T19:22:45.827Z,100603.69
2023-05-19T19:25:13.954Z,100600.04
2023-05-19T19:27:41.822Z,100605.41
2023-05-19T19:30:09.846Z,100611.94
2023-05-19T19:32:37.846Z,100614.99
2023-05-19T19:35:06.092Z,100613.50
2023-05-19T19:37:33.928Z,100613.11
2023-05-19T19:40:01.957Z,100615.00
2023-05-19T19:42:31.818Z,100620.73
2023-05-19T19:45:00.039Z,100623.75
2023-05-19T19:47:27.960Z,100627.88
2023-05-19T19:50:02.691Z,100633.89
2023-05-19T19:52:38.403Z,100638.83
2023-05-19T19:55:06.871Z,100648.53
2023-05-19T19:57:34.950Z,100658.78
2023-05-19T20:00:08.315Z,100661.44
2023-05-19T20:02:45.626Z,100661.48
2023-05-19T20:05:23.573Z,100662.63
2023-05-19T20:07:53.014Z,100663.83
2023-05-19T20:10:24.757Z,100668.73
2023-05-19T20:12:52.899Z,100666.84
2023-05-19T20:15:20.978Z,100667.82
2023-05-19T20:17:49.772Z,100667.33
2023-05-19T20:20:17.665Z,100670.45
2023-05-19T20:22:46.097Z,100669.67
2023-05-19T20:25:15.199Z,100672.72
2023-05-19T20:28:09.235Z,100675.12
2023-05-19T20:30:37.373Z,100671.34
2023-05-19T20:33:05.456Z,100670.33
2023-05-19T20:35:33.392Z,100668.88
2023-05-19T20:38:01.602Z,100665.25
2023-05-19T20:40:29.913Z,100664.55
2023-05-19T20:42:57.932Z,100661.73
2023-05-19T20:45:25.877Z,100658.48
2023-05-19T20:47:53.760Z,100655.30
2023-05-19T20:50:21.758Z,100654.18
2023-05-19T20:52:52.725Z,100658.58
2023-05-19T20:55:20.921Z,100659.47
2023-05-19T20:57:48.787Z,100655.75
2023-05-19T21:00:17.143Z,100651.98
2023-05-19T21:02:45.267Z,100649.68
2023-05-19T21:05:13.360Z,100650.94
2023-05-19T21:07:41.433Z,100649.73
2023-05-19T21:10:09.826Z,100650.59
2023-05-19T21:12:38.149Z,100651.32
2023-05-19T21:15:06.576Z,100649.17
2023-05-19T21:17:34.509Z,100648.36
2023-05-19T21:20:03.737Z,100649.46
2023-05-19T21:22:31.900Z,100649.45
2023-05-19T21:24:59.830Z,100647.54
2023-05-19T21:27:27.881Z,100641.58
2023-05-19T21:29:55.858Z,100641.63
2023-05-19T21:32:23.824Z,100643.38
2023-05-19T21:34:51.731Z,100645.66
2023-05-19T21:37:21.172Z,100646.14
2023-05-19T21:39:49.130Z,100649.39
2023-05-19T21:42:17.016Z,100651.66
2023-05-19T21:44:45.065Z,100657.85
2023-05-19T21:47:13.061Z,100661.02
2023-05-19T21:49:41.302Z,100663.02
2023-05-19T21:52:09.797Z,100660.55
2023-05-19T21:54:37.875Z,100660.30
2023-05-19T21:57:06.166Z,100664.38
2023-05-19T21:59:34.057Z,100658.45
2023-05-19T22:02:02.266Z,100662.04
2023-05-19T22:04:33.736Z,100659.16
2023-05-19T22:07:01.591Z,100655.67
2023-05-19T22:09:29.710Z,100658.52
2023-05-19T22:11:57.634Z,100654.80
2023-05-19T22:14:26.013Z,100653.45
2023-05-19T22:16:54.056Z,100654.96
2023-05-19T22:19:21.994Z,100653.98
2023-05-19T22:21:51.890Z,100656.58
2023-05-19T22:24:26.689Z,100659.66
2023-05-19T22:26:54.469Z,100662.05
2023-05-19T22:29:22.289Z,100662.29
2023-05-19T22:31:50.097Z,100663.74
2023-05-19T22:34:18.110Z,100664.23
2023-05-19T22:36:46.252Z,100661.13
2023-05-19T22:39:14.025Z,100652.95
2023-05-19T22:41:42.073Z,100647.98
2023-05-19T22:44:11.375Z,100644.49
2023-05-19T22:46:39.397Z,100646.98
2023-05-19T22:49:07.185Z,100646.81
2023-05-19T22:51:35.101Z,100647.10
2023-05-19T22:54:03.068Z,100643.89
2023-05-19T22:56:30.986Z,100637.45
2023-05-19T22:58:59.504Z,100635.13
2023-05-19T23:01:27.566Z,100633.44
2023-05-19T23:03:55.685Z,100631.27
2023-05-19T23:06:23.890Z,100624.41
2023-05-19T23:09:02.233Z,100621.54
2023-05-19T23:11:30.419Z,100627.60
2023-05-19T23:13:58.282Z,100631.84
2023-05-19T23:16:26.196Z,100634.94
2023-05-19T23:18:54.109Z,100633.11
2023-05-19T23:21:22.025Z,100629.14
2023-05-19T23:23:50.397Z,100628.90
2023-05-19T23:26:18.364Z,100625.89
2023-05-19T23:28:46.469Z,100624.52
2023-05-19T23:31:14.481Z,100621.42
2023-05-19T23:33:42.485Z,100622.55
2023-05-19T23:36:10.865Z,100621.13
2023-05-19T23:38:38.920Z,100621.20
2023-05-19T23:41:06.827Z,100617.89
2023-05-19T23:43:34.813Z,100616.27
2023-05-19T23:46:02.937Z,100615.08
2023-05-19T23:48:31.482Z,100614.30
2023-05-19T23:50:59.527Z,100612.51
2023-05-19T23:53:27.449Z,100609.10
2023-05-19T23:55:56.429Z,100607.00
2023-05-19T23:58:25.299Z,100606.56
